Time;durP1;ratioP1;P1;durP2;ratioP2;P2;SDS_P1;SDS_P2;PMS_P1;PMS_P2;Temp;Humidity;BMP_temperature;BMP_pressure;BME280_temperature;BME280_humidity;BME280_pressure;Samples;Min_cycle;Max_cycle;Signal;HPM_P1;HPM_P2
2022/05/17 14:49:01;;;;;;;4.50;2.97;;;;;;;;;;6243853;22;20157;-81
2022/05/17 14:51:28;;;;;;;5.93;3.40;;;;;;;;;;6220530;23;20433;-81
2022/05/17 14:53:55;;;;;;;8.68;3.47;;;;;;;;;;6247344;23;20004;-82
2022/05/17 14:56:21;;;;;;;6.30;3.88;;;;;;;;;;6247417;23;20421;-82
2022/05/17 14:58:48;;;;;;;6.63;3.25;;;;;;;;;;6220463;23;20043;-82
2022/05/17 15:01:16;;;;;;;4.03;3.63;;;;;;;;;;6220659;23;20024;-83
2022/05/17 15:03:45;;;;;;;4.47;3.25;;;;;;;;;;6220260;23;20008;-82
2022/05/17 15:06:13;;;;;;;4.30;3.10;;;;;;;;;;6220241;23;20004;-82
2022/05/17 15:08:42;;;;;;;6.43;3.47;;;;;;;;;;6219415;23;20008;-82
2022/05/17 15:11:09;;;;;;;4.32;3.50;;;;;;;;;;6220210;23;20011;-82
2022/05/17 15:13:35;;;;;;;4.47;3.30;;;;;;;;;;6220691;23;20004;-83
2022/05/17 15:16:02;;;;;;;6.75;3.60;;;;;;;;;;6220901;23;20092;-83
2022/05/17 15:18:30;;;;;;;4.60;3.78;;;;;;;;;;6220824;23;20062;-83
2022/05/17 15:20:57;;;;;;;6.47;4.00;;;;;;;;;;6220665;23;20095;-82
2022/05/17 15:23:29;;;;;;;4.97;3.55;;;;;;;;;;6220849;23;20452;-86
2022/05/17 15:25:57;;;;;;;7.57;3.78;;;;;;;;;;6220417;23;20008;-84
2022/05/17 15:28:23;;;;;;;4.68;3.72;;;;;;;;;;6220659;23;20016;-82
2022/05/17 15:30:49;;;;;;;6.72;4.88;;;;;;;;;;6220851;23;20031;-82
2022/05/17 15:33:16;;;;;;;9.45;4.80;;;;;;;;;;6247603;23;19996;-85
2022/05/17 15:35:42;;;;;;;6.90;4.18;;;;;;;;;;6221145;23;20004;-83
2022/05/17 15:38:17;;;;;;;4.97;4.10;;;;;;;;;;6220627;23;20005;-83
2022/05/17 15:40:43;;;;;;;6.28;4.57;;;;;;;;;;6220588;23;20004;-82
2022/05/17 15:43:09;;;;;;;8.30;5.10;;;;;;;;;;6220855;23;20015;-83
2022/05/17 15:45:39;;;;;;;6.50;5.43;;;;;;;;;;6221661;23;20027;-90
2022/05/17 15:53:38;;;;;;;7.05;6.35;;;;;;;;;;6278438;22;20050;-85
2022/05/17 15:56:09;;;;;;;7.45;6.10;;;;;;;;;;6250483;22;20103;-86
2022/05/17 15:58:37;;;;;;;6.85;5.47;;;;;;;;;;6251685;22;20011;-89
2022/05/17 16:01:08;;;;;;;6.55;4.05;;;;;;;;;;6251797;22;20018;-89
2022/05/17 16:03:36;;;;;;;4.85;4.43;;;;;;;;;;6249624;22;20010;-85
2022/05/17 16:06:02;;;;;;;8.02;4.35;;;;;;;;;;6278016;22;20008;-89
2022/05/17 16:08:28;;;;;;;9.88;4.93;;;;;;;;;;6250933;22;20433;-84
2022/05/17 16:11:47;;;;;;;6.57;4.57;;;;;;;;;;6251113;22;20008;-85
2022/05/17 16:13:41;;;;;;;6.85;4.45;;;;;;;;;;6277775;22;20000;-88
2022/05/17 16:16:07;;;;;;;7.25;5.25;;;;;;;;;;6251202;22;20000;-84
2022/05/17 16:18:36;;;;;;;8.32;4.80;;;;;;;;;;6251854;22;20014;-88
2022/05/17 16:21:02;;;;;;;6.57;4.10;;;;;;;;;;6251314;22;20000;-82
2022/05/17 16:23:28;;;;;;;7.82;4.00;;;;;;;;;;6250946;22;20010;-83
2022/05/17 16:25:54;;;;;;;5.43;4.05;;;;;;;;;;6251226;22;20433;-83
2022/05/17 16:28:20;;;;;;;5.32;4.05;;;;;;;;;;6251031;22;20012;-84
2022/05/17 16:30:47;;;;;;;6.95;4.20;;;;;;;;;;6251046;22;20031;-84
2022/05/17 16:33:15;;;;;;;8.48;4.75;;;;;;;;;;6250346;22;20008;-84
2022/05/17 16:35:42;;;;;;;6.55;4.60;;;;;;;;;;6250589;22;20682;-85
2022/05/17 16:38:08;;;;;;;7.30;4.40;;;;;;;;;;6250794;22;20435;-87
2022/05/17 16:40:34;;;;;;;6.65;5.00;;;;;;;;;;6250813;22;20038;-86
2022/05/17 16:43:01;;;;;;;7.30;5.50;;;;;;;;;;6250843;22;20053;-85
2022/05/17 16:45:29;;;;;;;7.28;5.30;;;;;;;;;;6250840;22;20048;-85
2022/05/17 16:47:55;;;;;;;6.35;5.15;;;;;;;;;;6250117;22;20019;-82
2022/05/17 16:50:27;;;;;;;9.48;5.45;;;;;;;;;;6250997;22;20007;-86
2022/05/17 16:52:53;;;;;;;7.63;5.70;;;;;;;;;;6250931;22;19999;-85
2022/05/17 16:55:20;;;;;;;9.77;6.18;;;;;;;;;;6250618;22;20008;-85
2022/05/17 16:57:47;;;;;;;9.85;6.72;;;;;;;;;;6250727;22;20455;-85
2022/05/17 17:00:13;;;;;;;8.63;6.45;;;;;;;;;;6251065;22;20068;-86
2022/05/17 17:02:40;;;;;;;7.15;5.55;;;;;;;;;;6250817;22;20003;-85
2022/05/17 17:05:24;;;;;;;7.32;5.28;;;;;;;;;;6250686;22;20053;-82
2022/05/17 17:07:50;;;;;;;9.50;5.50;;;;;;;;;;6249641;22;20485;-82
2022/05/17 17:10:18;;;;;;;8.85;5.50;;;;;;;;;;6249581;22;20014;-82
2022/05/17 17:12:44;;;;;;;8.63;5.32;;;;;;;;;;6249449;22;20039;-82
2022/05/17 17:15:11;;;;;;;7.20;5.57;;;;;;;;;;6249471;22;20091;-80
2022/05/17 17:17:37;;;;;;;6.95;5.45;;;;;;;;;;6251053;22;20052;-85
2022/05/17 17:20:04;;;;;;;9.32;5.40;;;;;;;;;;6249773;22;20413;-83
2022/05/17 17:22:30;;;;;;;8.20;5.47;;;;;;;;;;6249436;22;20004;-83
2022/05/17 17:24:57;;;;;;;6.72;4.82;;;;;;;;;;6250453;22;20022;-85
2022/05/17 17:27:23;;;;;;;8.20;5.07;;;;;;;;;;6250677;22;20031;-85
2022/05/17 17:29:50;;;;;;;7.93;4.90;;;;;;;;;;6250439;22;20019;-81
2022/05/17 17:37:33;;;;;;;9.15;4.47;;;;;;;;;;6186902;23;20021;-85
2022/05/17 17:39:59;;;;;;;7.65;4.65;;;;;;;;;;6160991;23;20446;-86
2022/05/17 17:42:26;;;;;;;7.97;4.20;;;;;;;;;;6160154;23;20006;-86
2022/05/17 17:44:53;;;;;;;5.70;3.80;;;;;;;;;;6160318;23;20011;-85
2022/05/17 17:47:19;;;;;;;7.30;4.10;;;;;;;;;;6187387;23;20130;-86
2022/05/17 17:49:46;;;;;;;7.55;4.60;;;;;;;;;;6161207;23;20071;-87
2022/05/17 17:52:13;;;;;;;9.90;4.82;;;;;;;;;;6162597;23;20039;-85
2022/05/17 17:54:39;;;;;;;10.38;6.18;;;;;;;;;;6161935;23;20012;-84
2022/05/17 17:57:07;;;;;;;10.40;6.32;;;;;;;;;;6162578;23;20064;-84
2022/05/17 17:59:34;;;;;;;10.60;8.45;;;;;;;;;;6161909;23;20005;-85
2022/05/17 18:02:00;;;;;;;11.93;8.75;;;;;;;;;;6162210;23;20059;-87
2022/05/17 18:04:26;;;;;;;17.20;10.18;;;;;;;;;;6162193;23;20028;-84
2022/05/17 18:06:52;;;;;;;13.77;11.95;;;;;;;;;;6161872;23;20013;-86
2022/05/17 18:09:25;;;;;;;14.05;11.77;;;;;;;;;;6162367;23;20024;-88
2022/05/17 18:11:51;;;;;;;14.83;11.77;;;;;;;;;;6167963;23;20005;-86
2022/05/17 18:14:17;;;;;;;13.30;11.80;;;;;;;;;;6163138;23;20240;-81
2022/05/17 18:16:49;;;;;;;17.48;13.40;;;;;;;;;;6163446;23;20009;-87
2022/05/17 18:19:16;;;;;;;16.17;14.30;;;;;;;;;;6161910;23;20104;-83
2022/05/17 18:21:42;;;;;;;18.17;14.63;;;;;;;;;;6161818;23;20009;-84
2022/05/17 18:24:09;;;;;;;20.83;14.75;;;;;;;;;;6162010;23;20012;-84
2022/05/17 18:26:36;;;;;;;16.60;14.88;;;;;;;;;;6163278;23;20012;-87
2022/05/17 18:29:23;;;;;;;17.83;14.35;;;;;;;;;;6161992;23;20024;-85
2022/05/17 18:31:50;;;;;;;18.42;15.52;;;;;;;;;;6161573;23;20383;-82
2022/05/17 18:34:49;;;;;;;16.65;14.38;;;;;;;;;;6137943;23;20096;-84
2022/05/17 18:37:04;;;;;;;18.02;15.27;;;;;;;;;;6157806;23;20009;-84
2022/05/17 18:39:30;;;;;;;18.30;14.82;;;;;;;;;;6127326;23;20089;-84
2022/05/17 18:41:57;;;;;;;18.60;15.35;;;;;;;;;;6156976;23;20001;-84
2022/05/17 18:44:24;;;;;;;18.90;15.88;;;;;;;;;;6126531;23;20009;-84
2022/05/17 18:46:50;;;;;;;16.80;14.48;;;;;;;;;;6129883;23;20006;-85
2022/05/17 18:49:17;;;;;;;16.17;14.45;;;;;;;;;;6126835;23;20021;-85
2022/05/17 18:51:43;;;;;;;17.45;14.20;;;;;;;;;;6155550;23;20002;-83
2022/05/17 18:54:09;;;;;;;18.05;14.25;;;;;;;;;;6126734;23;20012;-84
2022/05/17 18:56:35;;;;;;;19.38;14.38;;;;;;;;;;6126844;23;20006;-82
2022/05/17 18:59:01;;;;;;;17.17;14.00;;;;;;;;;;6126059;23;20081;-82
2022/05/17 19:01:27;;;;;;;15.95;13.88;;;;;;;;;;6125750;23;20033;-83
2022/05/17 19:03:55;;;;;;;20.48;15.10;;;;;;;;;;6130670;23;20002;-82
2022/05/17 19:06:26;;;;;;;19.02;14.55;;;;;;;;;;6127043;23;20006;-83
2022/05/17 19:14:22;;;;;;;15.30;13.52;;;;;;;;;;6157286;23;20016;-80
2022/05/17 19:16:54;;;;;;;15.20;12.85;;;;;;;;;;6129349;23;20001;-81
2022/05/17 19:19:23;;;;;;;19.63;13.50;;;;;;;;;;6157696;23;20138;-81
2022/05/17 19:21:51;;;;;;;16.30;12.63;;;;;;;;;;6158034;23;20453;-82
2022/05/17 19:24:19;;;;;;;15.52;12.63;;;;;;;;;;6157290;23;20001;-81
2022/05/17 19:26:46;;;;;;;15.25;12.35;;;;;;;;;;6157671;23;20327;-82
2022/05/17 19:29:15;;;;;;;15.70;12.57;;;;;;;;;;6126291;23;20014;-81
2022/05/17 19:31:41;;;;;;;15.95;11.40;;;;;;;;;;6128003;23;20006;-87
2022/05/17 19:34:11;;;;;;;15.48;11.93;;;;;;;;;;6145493;23;20026;-84
2022/05/17 19:39:28;;;;;;;16.90;11.43;;;;;;;;;;6187619;23;20016;-83
2022/05/17 19:41:55;;;;;;;15.07;11.60;;;;;;;;;;6160833;23;20457;-83
2022/05/17 19:44:21;;;;;;;16.05;11.80;;;;;;;;;;6160841;23;20422;-85
2022/05/17 19:46:49;;;;;;;14.55;10.90;;;;;;;;;;6160934;23;20431;-85
2022/05/17 19:49:17;;;;;;;13.68;11.20;;;;;;;;;;6160638;23;20342;-83
2022/05/17 19:51:45;;;;;;;14.90;11.13;;;;;;;;;;6160714;23;20427;-83
2022/05/17 19:54:11;;;;;;;15.43;10.55;;;;;;;;;;6160481;23;20001;-81
2022/05/17 19:56:37;;;;;;;18.65;10.85;;;;;;;;;;6160422;23;20315;-79
2022/05/17 19:59:03;;;;;;;13.27;11.00;;;;;;;;;;6187039;23;20374;-86
2022/05/17 20:01:30;;;;;;;13.27;10.70;;;;;;;;;;6160997;23;20006;-82
2022/05/17 20:03:56;;;;;;;14.30;10.35;;;;;;;;;;6186843;23;20005;-83
2022/05/17 20:06:22;;;;;;;13.43;10.43;;;;;;;;;;6158716;23;20079;-79
2022/05/17 20:08:49;;;;;;;14.05;10.20;;;;;;;;;;6158965;23;20036;-81
2022/05/17 20:11:15;;;;;;;14.27;10.35;;;;;;;;;;6159197;23;20012;-82
2022/05/17 20:13:41;;;;;;;19.25;9.73;;;;;;;;;;6158864;23;20009;-82
2022/05/17 20:16:07;;;;;;;14.82;9.88;;;;;;;;;;6158843;23;20005;-79
2022/05/17 20:18:36;;;;;;;12.00;9.13;;;;;;;;;;6185364;23;20033;-81
2022/05/17 20:21:02;;;;;;;13.63;9.57;;;;;;;;;;6158572;23;20040;-83
2022/05/17 20:23:31;;;;;;;12.27;9.23;;;;;;;;;;6185443;23;20081;-81
2022/05/17 20:25:57;;;;;;;12.20;8.80;;;;;;;;;;6158374;23;20008;-81
2022/05/17 20:28:24;;;;;;;15.63;9.55;;;;;;;;;;6158334;23;20013;-81
2022/05/17 20:30:52;;;;;;;14.65;10.25;;;;;;;;;;6158487;23;20430;-80
2022/05/17 20:33:18;;;;;;;21.42;9.73;;;;;;;;;;6159002;23;20438;-79
2022/05/17 20:35:45;;;;;;;16.48;10.43;;;;;;;;;;6185417;23;20012;-82
2022/05/17 20:38:12;;;;;;;16.90;9.80;;;;;;;;;;6159250;23;20007;-84
2022/05/17 20:40:38;;;;;;;14.32;9.02;;;;;;;;;;6185227;23;20152;-83
2022/05/17 20:43:05;;;;;;;15.40;9.30;;;;;;;;;;6158878;23;20005;-82
2022/05/17 20:45:31;;;;;;;10.98;8.15;;;;;;;;;;6158842;23;20009;-82
2022/05/17 20:50:42;;;;;;;18.42;8.27;;;;;;;;;;6184003;23;20016;-83
2022/05/17 20:53:08;;;;;;;12.15;7.55;;;;;;;;;;6158882;23;20009;-80
2022/05/17 20:55:36;;;;;;;9.48;7.20;;;;;;;;;;6158700;23;20001;-80
2022/05/17 20:58:02;;;;;;;11.00;7.00;;;;;;;;;;6184390;23;20028;-82
2022/05/17 21:00:29;;;;;;;10.60;6.70;;;;;;;;;;6158655;23;20430;-81
2022/05/17 21:02:56;;;;;;;10.63;6.25;;;;;;;;;;6158382;23;20659;-81
2022/05/17 21:05:26;;;;;;;10.82;6.63;;;;;;;;;;6158543;23;20005;-84
2022/05/17 21:07:52;;;;;;;11.55;6.32;;;;;;;;;;6158284;23;20009;-84
2022/05/17 21:10:18;;;;;;;10.43;6.35;;;;;;;;;;6185139;23;20009;-84
2022/05/17 21:12:47;;;;;;;9.38;6.35;;;;;;;;;;6159281;23;20029;-84
2022/05/17 21:15:13;;;;;;;10.23;6.07;;;;;;;;;;6158593;23;20005;-79
2022/05/17 21:17:40;;;;;;;8.77;5.57;;;;;;;;;;6158154;23;20012;-84
2022/05/17 21:20:08;;;;;;;8.35;5.80;;;;;;;;;;6158257;23;20045;-80
2022/05/17 21:22:34;;;;;;;8.80;5.72;;;;;;;;;;6178818;23;20092;-79
2022/05/17 21:25:01;;;;;;;9.98;5.65;;;;;;;;;;6158116;23;20009;-82
2022/05/17 21:27:29;;;;;;;8.98;6.47;;;;;;;;;;6158904;23;20001;-85
2022/05/17 21:29:56;;;;;;;14.38;5.90;;;;;;;;;;6158857;23;20020;-83
2022/05/17 21:32:22;;;;;;;7.97;5.43;;;;;;;;;;6185039;23;19997;-81
2022/05/17 21:34:49;;;;;;;11.40;5.70;;;;;;;;;;6158913;23;20053;-84
2022/05/17 21:37:17;;;;;;;10.15;6.10;;;;;;;;;;6158773;23;20699;-80
2022/05/17 21:39:44;;;;;;;10.43;5.80;;;;;;;;;;6185048;23;20012;-83
2022/05/17 21:42:12;;;;;;;9.93;5.55;;;;;;;;;;6157980;23;20497;-81
2022/05/17 21:44:39;;;;;;;6.32;4.45;;;;;;;;;;6158370;23;20024;-83
2022/05/17 21:47:06;;;;;;;7.80;4.68;;;;;;;;;;6185132;23;19997;-80
2022/05/17 21:49:32;;;;;;;9.77;5.28;;;;;;;;;;6158066;23;20482;-83
2022/05/17 21:51:58;;;;;;;8.13;4.75;;;;;;;;;;6158723;23;20012;-81
2022/05/17 21:54:25;;;;;;;10.88;4.97;;;;;;;;;;6158130;23;20008;-81
2022/05/17 21:56:51;;;;;;;7.30;5.30;;;;;;;;;;6184851;23;20024;-83
2022/05/17 21:59:18;;;;;;;8.77;4.90;;;;;;;;;;6158346;23;20312;-80
2022/05/17 22:01:45;;;;;;;7.88;4.70;;;;;;;;;;6158130;23;20005;-82
2022/05/17 22:04:12;;;;;;;9.35;4.50;;;;;;;;;;6158278;23;20316;-82
2022/05/17 22:06:38;;;;;;;10.15;4.50;;;;;;;;;;6158118;23;20091;-81
2022/05/17 22:09:06;;;;;;;5.72;3.90;;;;;;;;;;6184284;23;20341;-82
2022/05/17 22:14:17;;;;;;;7.10;4.00;;;;;;;;;;6184387;23;20016;-80
2022/05/17 22:16:43;;;;;;;9.73;3.95;;;;;;;;;;6157833;23;20005;-82
2022/05/17 22:19:11;;;;;;;7.68;4.13;;;;;;;;;;6158283;23;20358;-80
2022/05/17 22:21:39;;;;;;;15.23;4.07;;;;;;;;;;6158628;23;20005;-84
2022/05/17 22:24:05;;;;;;;8.15;3.38;;;;;;;;;;6158415;23;20056;-83
2022/05/17 22:26:32;;;;;;;12.40;3.95;;;;;;;;;;6158970;23;20035;-82
2022/05/17 22:28:59;;;;;;;7.18;3.30;;;;;;;;;;6184909;23;20055;-83
2022/05/17 22:31:26;;;;;;;10.70;3.60;;;;;;;;;;6159038;23;20001;-81
2022/05/17 22:33:52;;;;;;;7.88;3.53;;;;;;;;;;6140762;23;20077;-81
2022/05/17 22:36:19;;;;;;;9.13;3.35;;;;;;;;;;6125191;23;20009;-81
2022/05/17 22:38:45;;;;;;;7.90;3.70;;;;;;;;;;6128220;23;20539;-81
2022/05/17 22:41:12;;;;;;;14.18;3.58;;;;;;;;;;6156439;23;20013;-83
2022/05/17 22:43:38;;;;;;;10.10;3.42;;;;;;;;;;6126667;23;20002;-82
2022/05/17 22:48:50;;;;;;;16.45;3.30;;;;;;;;;;6154777;23;20060;-81
2022/05/17 22:51:17;;;;;;;30.17;4.10;;;;;;;;;;6125391;23;20065;-81
2022/05/17 22:53:44;;;;;;;14.95;3.60;;;;;;;;;;6153569;23;20004;-84
2022/05/17 22:56:10;;;;;;;10.43;3.20;;;;;;;;;;6125189;23;20325;-81
2022/05/17 22:58:37;;;;;;;9.98;3.13;;;;;;;;;;6125618;23;20601;-80
2022/05/17 23:01:03;;;;;;;19.48;3.88;;;;;;;;;;6124854;23;20018;-82
2022/05/17 23:03:30;;;;;;;8.45;3.60;;;;;;;;;;6125115;23;20006;-80
2022/05/17 23:05:56;;;;;;;13.73;3.10;;;;;;;;;;6129782;23;20009;-81
2022/05/17 23:08:22;;;;;;;15.75;4.25;;;;;;;;;;6125275;23;20045;-80
2022/05/17 23:10:49;;;;;;;9.95;5.38;;;;;;;;;;6154398;23;19997;-81
2022/05/17 23:13:15;;;;;;;8.77;5.05;;;;;;;;;;6124966;23;20017;-82
2022/05/17 23:15:41;;;;;;;8.32;3.97;;;;;;;;;;6126357;23;20002;-80
2022/05/17 23:18:07;;;;;;;11.40;3.85;;;;;;;;;;6155845;23;20327;-82
2022/05/17 23:20:35;;;;;;;6.47;3.80;;;;;;;;;;6124423;23;20002;-81
2022/05/17 23:23:01;;;;;;;11.00;4.10;;;;;;;;;;6129388;23;20005;-81
2022/05/17 23:28:27;;;;;;;7.40;3.70;;;;;;;;;;6155826;23;20048;-82
2022/05/17 23:31:02;;;;;;;8.30;4.18;;;;;;;;;;6128741;23;20010;-79
2022/05/17 23:33:28;;;;;;;9.25;3.83;;;;;;;;;;6142007;23;20016;-81
2022/05/17 23:35:55;;;;;;;9.27;4.03;;;;;;;;;;6185345;23;20009;-79
2022/05/17 23:38:21;;;;;;;12.05;3.90;;;;;;;;;;6158942;23;20434;-80
2022/05/17 23:40:47;;;;;;;10.65;4.20;;;;;;;;;;6158811;23;20001;-81
2022/05/17 23:43:13;;;;;;;11.48;4.07;;;;;;;;;;6185713;23;20011;-79
2022/05/17 23:45:40;;;;;;;15.77;3.92;;;;;;;;;;6159113;23;20005;-82
2022/05/17 23:48:07;;;;;;;10.63;3.65;;;;;;;;;;6158813;23;20036;-83
2022/05/17 23:50:33;;;;;;;9.25;3.75;;;;;;;;;;6159114;23;20044;-81
2022/05/17 23:52:59;;;;;;;9.55;3.65;;;;;;;;;;6186155;23;20077;-82
2022/05/17 23:55:26;;;;;;;12.98;4.30;;;;;;;;;;6160892;23;20005;-80
2022/05/17 23:57:52;;;;;;;8.93;3.30;;;;;;;;;;6186691;23;20005;-83
